createdAt,value
2023-02-12T00:00:08.503Z,19.50
2023-02-12T00:05:19.771Z,19.90
2023-02-12T00:10:23.274Z,19.60
2023-02-12T00:15:26.772Z,19.23
2023-02-12T00:20:31.571Z,19.15
2023-02-12T00:25:35.072Z,20.08
2023-02-12T00:30:38.656Z,18.67
2023-02-12T00:35:43.498Z,18.80
2023-02-12T00:40:46.930Z,18.70
2023-02-12T00:45:50.318Z,18.50
2023-02-12T00:50:55.044Z,20.33
2023-02-12T00:55:58.560Z,18.85
2023-02-12T01:01:02.048Z,18.35
2023-02-12T01:06:07.460Z,18.88
2023-02-12T01:11:14.100Z,18.25
2023-02-12T01:16:20.167Z,18.88
2023-02-12T01:21:26.665Z,16.52
2023-02-12T01:26:32.491Z,18.33
2023-02-12T01:31:38.624Z,18.90
2023-02-12T01:36:43.826Z,17.95
2023-02-12T01:41:47.482Z,18.20
2023-02-12T01:46:55.884Z,19.15
2023-02-12T01:52:06.084Z,18.05
2023-02-12T01:57:12.225Z,17.45
2023-02-12T02:02:15.990Z,18.15
2023-02-12T02:07:20.960Z,18.00
2023-02-12T02:12:42.394Z,17.48
2023-02-12T02:17:55.085Z,18.25
2023-02-12T02:23:20.177Z,18.77
2023-02-12T02:28:40.814Z,18.80
2023-02-12T02:33:59.080Z,18.95
2023-02-12T02:39:08.482Z,18.92
2023-02-12T02:44:18.237Z,17.53
2023-02-12T02:49:26.282Z,17.77
2023-02-12T02:54:34.735Z,17.08
2023-02-12T02:59:43.454Z,18.73
2023-02-12T03:04:53.413Z,18.13
2023-02-12T03:10:02.398Z,15.90
2023-02-12T03:15:11.291Z,16.67
2023-02-12T03:20:20.764Z,18.15
2023-02-12T03:25:29.348Z,18.23
2023-02-12T03:30:40.936Z,17.30
2023-02-12T03:35:52.081Z,15.82
2023-02-12T03:41:01.614Z,18.00
2023-02-12T03:46:16.430Z,17.05
2023-02-12T03:51:25.144Z,18.17
2023-02-12T03:56:35.160Z,17.92
2023-02-12T04:01:42.298Z,18.48
2023-02-12T04:06:50.274Z,18.05
2023-02-12T04:12:06.462Z,18.27
2023-02-12T04:17:20.605Z,16.25
2023-02-12T04:22:34.905Z,17.92
2023-02-12T04:27:46.194Z,18.98
2023-02-12T04:32:54.678Z,17.92
2023-02-12T04:38:08.649Z,18.48
2023-02-12T04:43:12.427Z,17.70
2023-02-12T04:48:15.831Z,17.55
2023-02-12T04:53:20.566Z,18.63
2023-02-12T04:58:23.925Z,17.60
2023-02-12T05:03:27.375Z,17.45
2023-02-12T05:08:32.091Z,17.70
2023-02-12T05:13:35.575Z,17.40
2023-02-12T05:18:39.076Z,18.75
2023-02-12T05:23:44.012Z,18.23
2023-02-12T05:28:47.641Z,17.40
2023-02-12T05:33:51.756Z,17.73
2023-02-12T05:38:59.678Z,17.48
2023-02-12T05:44:03.443Z,18.65
2023-02-12T05:49:06.819Z,17.65
2023-02-12T05:54:12.013Z,17.85
2023-02-12T05:59:18.611Z,17.67
2023-02-12T06:04:24.026Z,18.25
2023-02-12T06:09:33.011Z,17.77
2023-02-12T06:14:36.701Z,18.95
2023-02-12T06:19:40.390Z,17.15
2023-02-12T06:24:45.181Z,17.42
2023-02-12T06:29:48.563Z,16.20
2023-02-12T06:34:52.037Z,18.85
2023-02-12T06:39:56.889Z,18.00
2023-02-12T06:45:00.397Z,17.77
2023-02-12T06:50:04.349Z,18.63
2023-02-12T06:55:09.639Z,15.93
2023-02-12T07:00:13.785Z,18.20
2023-02-12T07:05:17.309Z,19.98
2023-02-12T07:10:22.076Z,19.55
2023-02-12T07:15:27.932Z,19.45
2023-02-12T07:20:31.336Z,18.52
2023-02-12T07:25:36.131Z,19.50
2023-02-12T07:30:42.519Z,19.02
2023-02-12T07:35:46.154Z,19.50
2023-02-12T07:40:50.990Z,19.80
2023-02-12T07:45:54.808Z,18.33
2023-02-12T07:50:58.449Z,18.52
2023-02-12T07:56:12.498Z,19.85
2023-02-12T08:01:18.998Z,18.92
2023-02-12T08:06:24.660Z,19.35
2023-02-12T08:11:31.722Z,20.45
2023-02-12T08:16:39.810Z,18.98
2023-02-12T08:21:43.358Z,19.33
2023-02-12T08:26:48.102Z,20.50
2023-02-12T08:31:55.871Z,19.45
2023-02-12T08:36:59.780Z,20.77
2023-02-12T08:42:04.856Z,20.02
2023-02-12T08:47:10.131Z,20.95
2023-02-12T08:52:13.544Z,21.70
2023-02-12T08:57:19.370Z,22.13
2023-02-12T09:02:22.883Z,20.98
2023-02-12T09:07:26.379Z,22.42
2023-02-12T09:12:32.353Z,20.85
2023-02-12T09:17:35.733Z,22.70
2023-02-12T09:22:39.101Z,21.98
2023-02-12T09:27:43.840Z,22.88
2023-02-12T09:32:47.244Z,23.63
2023-02-12T09:37:50.835Z,23.52
2023-02-12T09:43:06.825Z,23.02
2023-02-12T09:48:26.282Z,22.63
2023-02-12T09:53:32.482Z,24.65
2023-02-12T09:58:42.595Z,21.08
2023-02-12T10:03:48.228Z,21.45
2023-02-12T10:09:02.607Z,22.45
2023-02-12T10:14:23.544Z,18.10
2023-02-12T10:19:44.497Z,16.88
2023-02-12T10:25:09.417Z,16.27
2023-02-12T10:30:22.472Z,14.57
2023-02-12T10:35:26.829Z,15.20
2023-02-12T10:40:33.933Z,12.27
2023-02-12T10:45:40.871Z,15.48
2023-02-12T10:50:53.314Z,13.93
2023-02-12T10:56:15.076Z,13.60
2023-02-12T11:01:23.130Z,13.60
2023-02-12T11:06:28.510Z,9.68
2023-02-12T11:11:38.179Z,10.32
2023-02-12T11:16:52.505Z,9.15
2023-02-12T11:22:08.452Z,7.65
2023-02-12T11:27:26.517Z,7.47
2023-02-12T11:32:31.309Z,6.97
2023-02-12T11:37:37.194Z,7.63
2023-02-12T11:42:43.382Z,10.85
2023-02-12T11:47:49.136Z,8.57
2023-02-12T11:52:54.838Z,6.78
2023-02-12T11:58:04.614Z,6.35
2023-02-12T12:03:15.735Z,4.03
2023-02-12T12:08:25.908Z,3.75
2023-02-12T12:19:01.997Z,3.60
2023-02-12T12:24:12.124Z,3.63
2023-02-12T12:29:23.378Z,3.60
2023-02-12T12:34:29.903Z,3.13
2023-02-12T12:39:41.865Z,3.42
2023-02-12T12:50:20.817Z,3.15
2023-02-12T12:55:52.675Z,2.70
2023-02-12T13:01:17.110Z,2.63
2023-02-12T13:06:54.132Z,2.83
2023-02-12T13:12:14.474Z,2.53
2023-02-12T13:17:26.919Z,3.20
2023-02-12T13:22:38.587Z,2.90
2023-02-12T13:27:43.917Z,2.92
2023-02-12T13:32:52.740Z,3.33
2023-02-12T13:37:58.591Z,3.60
2023-02-12T13:43:08.866Z,4.50
2023-02-12T13:48:35.236Z,3.80
2023-02-12T13:53:51.349Z,3.78
2023-02-12T13:59:00.297Z,4.40
2023-02-12T14:04:24.303Z,4.10
2023-02-12T14:09:37.859Z,3.67
2023-02-12T14:14:45.191Z,4.90
2023-02-12T14:19:56.705Z,4.35
2023-02-12T14:25:02.835Z,4.05
2023-02-12T14:30:28.869Z,4.07
2023-02-12T14:35:33.344Z,5.20
2023-02-12T14:40:44.329Z,3.67
2023-02-12T14:45:47.832Z,3.17
2023-02-12T14:50:53.537Z,3.05
2023-02-12T14:55:59.746Z,2.85
2023-02-12T15:01:05.312Z,2.72
2023-02-12T15:06:14.528Z,2.80
2023-02-12T15:11:30.940Z,2.47
2023-02-12T15:16:50.609Z,2.45
2023-02-12T15:21:55.516Z,2.00
2023-02-12T15:27:01.585Z,2.83
2023-02-12T15:32:07.607Z,2.38
2023-02-12T15:37:18.069Z,2.78
2023-02-12T15:42:28.328Z,2.60
2023-02-12T15:47:32.034Z,2.58
2023-02-12T15:52:39.616Z,4.28
2023-02-12T15:57:45.521Z,4.28
2023-02-12T16:02:53.472Z,3.33
2023-02-12T16:07:57.472Z,2.92
2023-02-12T16:13:02.771Z,2.95
2023-02-12T16:18:06.811Z,3.50
2023-02-12T16:23:10.425Z,3.60
2023-02-12T16:28:23.444Z,3.55
2023-02-12T16:33:35.026Z,3.63
2023-02-12T16:38:45.086Z,4.70
2023-02-12T16:43:52.372Z,4.30
2023-02-12T16:48:58.183Z,4.45
2023-02-12T16:54:03.709Z,10.77
2023-02-12T16:59:08.509Z,11.75
2023-02-12T17:04:16.282Z,6.88
2023-02-12T17:09:23.699Z,10.73
2023-02-12T17:14:28.458Z,6.15
2023-02-12T17:19:34.298Z,4.63
2023-02-12T17:24:37.797Z,3.60
2023-02-12T17:29:44.937Z,3.70
2023-02-12T17:34:48.912Z,4.13
2023-02-12T17:39:53.485Z,5.13
2023-02-12T17:44:58.446Z,5.88
2023-02-12T17:50:02.604Z,3.85
2023-02-12T17:55:07.712Z,4.65
2023-02-12T18:00:14.734Z,4.38
2023-02-12T18:05:18.534Z,3.78
2023-02-12T18:10:22.267Z,3.53
2023-02-12T18:15:27.030Z,7.00
2023-02-12T18:20:30.710Z,6.32
2023-02-12T18:25:34.100Z,7.82
2023-02-12T18:30:42.743Z,4.95
2023-02-12T18:35:46.280Z,5.57
2023-02-12T18:40:49.756Z,4.68
2023-02-12T18:45:55.296Z,4.70
2023-02-12T18:51:01.755Z,6.10
2023-02-12T18:56:06.471Z,6.50
2023-02-12T19:01:16.035Z,8.52
2023-02-12T19:06:19.503Z,6.07
2023-02-12T19:11:22.911Z,6.30
2023-02-12T19:16:28.575Z,8.38
2023-02-12T19:21:34.633Z,8.73
2023-02-12T19:26:38.003Z,12.48
2023-02-12T19:31:46.295Z,8.85
2023-02-12T19:36:50.548Z,8.48
2023-02-12T19:41:56.068Z,5.80
2023-02-12T19:47:01.040Z,5.80
2023-02-12T19:52:07.316Z,6.50
2023-02-12T19:57:13.471Z,5.85
2023-02-12T20:02:18.388Z,6.20
2023-02-12T20:07:21.778Z,6.35
2023-02-12T20:12:25.120Z,7.20
2023-02-12T20:20:56.193Z,8.80
2023-02-12T20:25:59.919Z,9.68
2023-02-12T20:31:09.502Z,10.27
2023-02-12T20:47:48.302Z,11.48
2023-02-12T20:52:51.806Z,10.50
2023-02-12T20:57:55.173Z,11.15
2023-02-12T21:03:03.801Z,9.63
2023-02-12T21:08:07.426Z,10.05
2023-02-12T21:29:01.033Z,8.63
2023-02-12T21:34:06.698Z,7.78
2023-02-12T21:39:12.623Z,7.88
2023-02-12T21:44:20.159Z,9.18
2023-02-12T21:49:27.493Z,8.82
2023-02-12T21:54:31.974Z,7.97
2023-02-12T21:59:36.893Z,9.00
2023-02-12T22:04:40.408Z,8.75
2023-02-12T22:09:44.439Z,8.40
2023-02-12T22:14:49.908Z,9.77
2023-02-12T22:19:53.476Z,9.50
2023-02-12T22:24:56.878Z,10.75
2023-02-12T22:30:03.394Z,9.80
2023-02-12T22:35:07.771Z,10.05
2023-02-12T22:40:14.161Z,8.65
2023-02-12T22:45:18.935Z,8.55
2023-02-12T22:50:22.399Z,7.95
2023-02-12T22:55:26.051Z,8.85
2023-02-12T23:00:30.820Z,7.82
2023-02-12T23:05:37.153Z,9.05
2023-02-12T23:10:40.808Z,8.50
2023-02-12T23:15:45.926Z,8.32
2023-02-12T23:20:49.952Z,9.07
2023-02-12T23:25:55.123Z,9.07
2023-02-12T23:31:00.411Z,8.85
2023-02-12T23:36:07.829Z,8.43
2023-02-12T23:41:11.368Z,8.00
2023-02-12T23:46:16.273Z,9.15
2023-02-12T23:51:19.962Z,8.95
2023-02-12T23:56:23.781Z,9.30
